createdAt,value
2022-10-22T00:00:32.133Z,1005.84
2022-10-22T00:01:32.140Z,1005.92
2022-10-22T00:02:32.251Z,1006.00
2022-10-22T00:03:32.101Z,1006.08
2022-10-22T00:04:34.580Z,1006.13
2022-10-22T00:05:32.083Z,1006.15
2022-10-22T00:06:32.094Z,1006.13
2022-10-22T00:07:32.068Z,1006.10
2022-10-22T00:08:32.123Z,1006.06
2022-10-22T00:09:32.042Z,1006.04
2022-10-22T00:10:32.025Z,1006.03
2022-10-22T00:11:32.081Z,1006.02
2022-10-22T00:12:32.006Z,1006.01
2022-10-22T00:13:32.016Z,1006.03
2022-10-22T00:14:31.981Z,1006.07
2022-10-22T00:15:32.015Z,1006.11
2022-10-22T00:16:31.964Z,1006.10
2022-10-22T00:17:32.010Z,1006.08
2022-10-22T00:18:31.941Z,1006.05
2022-10-22T00:19:31.949Z,1006.04
2022-10-22T00:20:31.942Z,1006.06
2022-10-22T00:21:31.974Z,1006.11
2022-10-22T00:22:31.924Z,1006.13
2022-10-22T00:23:31.936Z,1006.12
2022-10-22T00:24:31.888Z,1006.09
2022-10-22T00:25:31.967Z,1006.05
2022-10-22T00:26:31.863Z,1006.01
2022-10-22T00:27:31.899Z,1006.00
2022-10-22T00:28:31.840Z,1006.03
2022-10-22T00:29:31.843Z,1006.05
2022-10-22T00:30:31.916Z,1006.05
2022-10-22T00:31:31.825Z,1006.02
2022-10-22T00:32:31.864Z,1005.97
2022-10-22T00:33:31.817Z,1005.90
2022-10-22T00:34:31.912Z,1005.84
2022-10-22T00:35:31.803Z,1005.81
2022-10-22T00:36:31.758Z,1005.81
2022-10-22T00:37:31.801Z,1005.83
2022-10-22T00:38:31.787Z,1005.84
2022-10-22T00:39:31.906Z,1005.84
2022-10-22T00:40:31.754Z,1005.82
2022-10-22T00:41:31.782Z,1005.80
2022-10-22T00:42:31.720Z,1005.79
2022-10-22T00:43:31.697Z,1005.78
2022-10-22T00:44:31.669Z,1005.79
2022-10-22T00:45:31.769Z,1005.78
2022-10-22T00:46:31.728Z,1005.77
2022-10-22T00:47:31.644Z,1005.76
2022-10-22T00:48:31.635Z,1005.75
2022-10-22T00:49:31.647Z,1005.75
2022-10-22T00:50:31.715Z,1005.75
2022-10-22T00:51:31.667Z,1005.76
2022-10-22T00:52:31.596Z,1005.76
2022-10-22T00:53:31.589Z,1005.79
2022-10-22T00:54:31.618Z,1005.85
2022-10-22T00:55:31.587Z,1005.86
2022-10-22T00:56:31.544Z,1005.86
2022-10-22T00:57:31.546Z,1005.85
2022-10-22T00:58:31.626Z,1005.87
2022-10-22T00:59:31.565Z,1005.89
2022-10-22T01:00:31.640Z,1005.92
2022-10-22T01:01:31.541Z,1005.95
2022-10-22T01:02:31.542Z,1005.96
2022-10-22T01:03:31.481Z,1005.96
2022-10-22T01:04:31.564Z,1005.95
2022-10-22T01:05:31.469Z,1005.95
2022-10-22T01:06:31.661Z,1005.98
2022-10-22T01:07:31.512Z,1006.03
2022-10-22T01:08:31.523Z,1006.11
2022-10-22T01:09:31.420Z,1006.17
2022-10-22T01:10:31.563Z,1006.20
2022-10-22T01:11:31.395Z,1006.18
2022-10-22T01:12:31.514Z,1006.16
2022-10-22T01:13:31.371Z,1006.13
2022-10-22T01:14:31.406Z,1006.11
2022-10-22T01:15:31.379Z,1006.09
2022-10-22T01:16:31.472Z,1006.07
2022-10-22T01:17:31.332Z,1006.07
2022-10-22T01:18:31.386Z,1006.10
2022-10-22T01:19:31.307Z,1006.14
2022-10-22T01:20:31.356Z,1006.16
2022-10-22T01:21:31.293Z,1006.17
2022-10-22T01:22:31.299Z,1006.15
2022-10-22T01:23:31.267Z,1006.12
2022-10-22T01:24:31.369Z,1006.08
2022-10-22T01:25:31.276Z,1006.03
2022-10-22T01:26:37.249Z,1005.98
2022-10-22T01:27:32.831Z,1005.94
2022-10-22T01:28:33.629Z,1005.94
2022-10-22T01:29:31.213Z,1005.96
2022-10-22T01:30:31.195Z,1005.97
2022-10-22T01:31:31.180Z,1005.98
2022-10-22T01:32:31.174Z,1005.99
2022-10-22T01:33:31.161Z,1005.98
2022-10-22T01:34:31.185Z,1005.97
2022-10-22T01:35:31.179Z,1005.93
2022-10-22T01:36:31.127Z,1005.88
2022-10-22T01:37:31.131Z,1005.86
2022-10-22T01:38:31.107Z,1005.86
2022-10-22T01:39:31.112Z,1005.87
2022-10-22T01:40:31.089Z,1005.88
2022-10-22T01:41:31.096Z,1005.89
2022-10-22T01:42:31.064Z,1005.89
2022-10-22T01:43:31.058Z,1005.89
2022-10-22T01:44:31.103Z,1005.91
2022-10-22T01:45:31.084Z,1005.94
2022-10-22T01:46:31.021Z,1005.94
2022-10-22T01:47:31.046Z,1005.93
2022-10-22T01:48:31.003Z,1005.92
2022-10-22T01:49:31.007Z,1005.86
2022-10-22T01:50:31.004Z,1005.85
2022-10-22T01:51:31.017Z,1005.88
2022-10-22T01:52:30.959Z,1005.88
2022-10-22T01:53:30.949Z,1005.89
2022-10-22T01:54:30.951Z,1005.94
2022-10-22T01:55:30.987Z,1005.96
2022-10-22T01:56:31.027Z,1005.97
2022-10-22T01:57:30.968Z,1005.98
2022-10-22T01:58:30.901Z,1005.99
2022-10-22T01:59:30.964Z,1006.00
2022-10-22T02:00:30.915Z,1005.99
2022-10-22T02:01:30.952Z,1005.98
2022-10-22T02:02:30.949Z,1006.01
2022-10-22T02:03:30.847Z,1006.04
2022-10-22T02:04:30.861Z,1006.06
2022-10-22T02:05:30.825Z,1006.07
2022-10-22T02:06:30.814Z,1006.07
2022-10-22T02:07:30.821Z,1006.07
2022-10-22T02:08:30.797Z,1006.07
2022-10-22T02:09:30.845Z,1006.06
2022-10-22T02:10:30.802Z,1006.06
2022-10-22T02:11:30.764Z,1006.05
2022-10-22T02:12:30.754Z,1006.06
2022-10-22T02:13:32.178Z,1006.06
2022-10-22T02:14:30.784Z,1006.07
2022-10-22T02:15:30.722Z,1006.07
2022-10-22T02:16:30.711Z,1006.06
2022-10-22T02:17:30.716Z,1006.04
2022-10-22T02:18:30.716Z,1006.02
2022-10-22T02:19:30.679Z,1006.01
2022-10-22T02:20:30.664Z,1006.02
2022-10-22T02:21:30.660Z,1006.04
2022-10-22T02:22:30.650Z,1006.06
2022-10-22T02:23:30.689Z,1006.07
2022-10-22T02:24:30.629Z,1006.06
2022-10-22T02:25:30.618Z,1006.06
2022-10-22T02:26:30.622Z,1006.03
2022-10-22T02:27:30.606Z,1006.00
2022-10-22T02:28:30.637Z,1005.98
2022-10-22T02:29:30.605Z,1005.96
2022-10-22T02:30:30.573Z,1005.96
2022-10-22T02:31:30.590Z,1005.96
2022-10-22T02:32:30.538Z,1005.96
2022-10-22T02:33:30.547Z,1005.95
2022-10-22T02:34:30.530Z,1005.94
2022-10-22T02:35:30.512Z,1005.91
2022-10-22T02:36:30.529Z,1005.91
2022-10-22T02:37:30.492Z,1005.91
2022-10-22T02:38:30.512Z,1005.91
2022-10-22T02:39:30.469Z,1005.92
2022-10-22T02:40:30.477Z,1005.94
2022-10-22T02:41:30.451Z,1005.95
2022-10-22T02:42:30.442Z,1005.96
2022-10-22T02:43:30.450Z,1005.95
2022-10-22T02:44:30.413Z,1005.95
2022-10-22T02:45:30.416Z,1005.92
2022-10-22T02:46:30.398Z,1005.91
2022-10-22T02:47:30.386Z,1005.91
2022-10-22T02:48:30.391Z,1005.91
2022-10-22T02:49:30.369Z,1005.93
2022-10-22T02:50:30.352Z,1005.94
2022-10-22T02:51:30.357Z,1005.95
2022-10-22T02:52:30.326Z,1005.97
2022-10-22T02:53:30.342Z,1005.99
2022-10-22T02:54:30.310Z,1006.01
2022-10-22T02:55:30.309Z,1006.03
2022-10-22T02:56:30.292Z,1006.06
2022-10-22T02:57:30.290Z,1006.08
2022-10-22T02:58:30.284Z,1006.13
2022-10-22T02:59:30.275Z,1006.16
2022-10-22T03:00:30.295Z,1006.19
2022-10-22T03:01:30.252Z,1006.20
2022-10-22T03:02:30.239Z,1006.19
2022-10-22T03:03:30.237Z,1006.18
2022-10-22T03:04:30.208Z,1006.17
2022-10-22T03:05:30.220Z,1006.15
2022-10-22T03:06:30.190Z,1006.14
2022-10-22T03:07:30.181Z,1006.12
2022-10-22T03:08:30.261Z,1006.10
2022-10-22T03:09:30.194Z,1006.08
2022-10-22T03:10:30.157Z,1006.05
2022-10-22T03:11:30.175Z,1006.03
2022-10-22T03:12:30.122Z,1006.02
2022-10-22T03:13:30.205Z,1006.01
2022-10-22T03:14:30.121Z,1005.99
2022-10-22T03:15:30.104Z,1005.98
2022-10-22T03:16:30.193Z,1005.98
2022-10-22T03:17:30.132Z,1005.97
2022-10-22T03:18:30.078Z,1005.95
2022-10-22T03:19:30.053Z,1005.94
2022-10-22T03:20:30.059Z,1005.93
2022-10-22T03:21:30.029Z,1005.92
2022-10-22T03:22:30.052Z,1005.91
2022-10-22T03:23:30.030Z,1005.90
2022-10-22T03:24:29.995Z,1005.88
2022-10-22T03:25:29.994Z,1005.88
2022-10-22T03:26:29.975Z,1005.88
2022-10-22T03:27:30.021Z,1005.90
2022-10-22T03:28:29.980Z,1005.90
2022-10-22T03:29:29.953Z,1005.91
2022-10-22T03:30:29.936Z,1005.90
2022-10-22T03:31:29.924Z,1005.90
2022-10-22T03:32:29.916Z,1005.90
2022-10-22T03:33:29.930Z,1005.91
2022-10-22T03:34:29.911Z,1005.93
2022-10-22T03:35:29.893Z,1005.96
2022-10-22T03:36:29.918Z,1005.98
2022-10-22T03:37:29.863Z,1005.99
2022-10-22T03:38:29.866Z,1006.00
2022-10-22T03:39:29.851Z,1006.00
2022-10-22T03:40:29.846Z,1006.01
2022-10-22T03:41:29.833Z,1006.02
2022-10-22T03:42:29.806Z,1006.03
2022-10-22T03:43:29.813Z,1006.02
2022-10-22T03:44:29.790Z,1006.01
2022-10-22T03:45:29.839Z,1006.00
2022-10-22T03:46:29.799Z,1005.99
2022-10-22T03:47:29.805Z,1005.99
2022-10-22T03:48:29.770Z,1005.99
2022-10-22T03:49:29.761Z,1005.99
2022-10-22T03:50:29.722Z,1005.99
2022-10-22T03:51:29.784Z,1006.00
2022-10-22T03:52:29.722Z,1006.00
2022-10-22T03:53:29.742Z,1006.00
2022-10-22T03:54:29.740Z,1006.01
2022-10-22T03:55:29.719Z,1006.02
2022-10-22T03:56:29.717Z,1006.03
2022-10-22T03:57:29.660Z,1006.04
2022-10-22T03:58:29.701Z,1006.05
2022-10-22T03:59:29.645Z,1006.05
2022-10-22T04:00:29.652Z,1006.05
2022-10-22T04:01:29.689Z,1006.05
2022-10-22T04:02:29.653Z,1006.05
2022-10-22T04:03:29.597Z,1006.06
2022-10-22T04:04:29.586Z,1006.06
2022-10-22T04:05:29.617Z,1006.07
2022-10-22T04:06:29.562Z,1006.09
2022-10-22T04:07:29.547Z,1006.11
2022-10-22T04:08:29.593Z,1006.13
2022-10-22T04:09:29.542Z,1006.15
2022-10-22T04:10:29.525Z,1006.18
2022-10-22T04:11:29.552Z,1006.19
2022-10-22T04:12:29.523Z,1006.20
2022-10-22T04:13:29.489Z,1006.20
2022-10-22T04:14:29.488Z,1006.20
2022-10-22T04:15:29.484Z,1006.21
2022-10-22T04:16:30.634Z,1006.21
2022-10-22T04:17:29.474Z,1006.22
2022-10-22T04:18:29.448Z,1006.24
2022-10-22T04:19:29.435Z,1006.25
2022-10-22T04:20:29.415Z,1006.27
2022-10-22T04:21:29.413Z,1006.28
2022-10-22T04:22:29.424Z,1006.29
2022-10-22T04:23:29.379Z,1006.30
2022-10-22T04:24:29.391Z,1006.32
2022-10-22T04:25:29.406Z,1006.33
2022-10-22T04:26:29.364Z,1006.34
2022-10-22T04:27:29.360Z,1006.36
2022-10-22T04:28:29.414Z,1006.37
2022-10-22T04:29:29.429Z,1006.38
2022-10-22T04:30:29.330Z,1006.40
2022-10-22T04:31:29.380Z,1006.43
2022-10-22T04:32:29.343Z,1006.45
2022-10-22T04:33:29.314Z,1006.46
2022-10-22T04:34:29.282Z,1006.47
2022-10-22T04:35:29.253Z,1006.46
2022-10-22T04:36:29.246Z,1006.46
2022-10-22T04:37:29.246Z,1006.47
2022-10-22T04:38:29.253Z,1006.46
2022-10-22T04:39:29.218Z,1006.44
2022-10-22T04:40:29.207Z,1006.42
2022-10-22T04:41:29.191Z,1006.41
2022-10-22T04:42:29.203Z,1006.41
2022-10-22T04:43:29.169Z,1006.41
2022-10-22T04:44:29.173Z,1006.41
2022-10-22T04:45:29.160Z,1006.42
2022-10-22T04:46:29.209Z,1006.41
2022-10-22T04:47:29.170Z,1006.41
2022-10-22T04:48:29.126Z,1006.40
2022-10-22T04:49:29.117Z,1006.39
2022-10-22T04:50:29.162Z,1006.39
2022-10-22T04:51:29.134Z,1006.38
2022-10-22T04:52:29.143Z,1006.37
2022-10-22T04:53:29.087Z,1006.37
2022-10-22T04:54:32.286Z,1006.37
2022-10-22T04:55:32.082Z,1006.36
2022-10-22T04:56:29.111Z,1006.36
2022-10-22T04:57:29.075Z,1006.35
2022-10-22T04:58:29.032Z,1006.35
2022-10-22T04:59:29.005Z,1006.33
2022-10-22T05:00:29.080Z,1006.33
2022-10-22T05:01:29.103Z,1006.32
2022-10-22T05:02:28.988Z,1006.31
2022-10-22T05:03:29.009Z,1006.30
2022-10-22T05:04:28.972Z,1006.30
2022-10-22T05:05:28.943Z,1006.30
2022-10-22T05:06:29.050Z,1006.30
2022-10-22T05:07:28.922Z,1006.31
2022-10-22T05:08:28.913Z,1006.29
2022-10-22T05:09:28.903Z,1006.29
2022-10-22T05:10:28.914Z,1006.28
2022-10-22T05:11:28.900Z,1006.28
2022-10-22T05:12:28.871Z,1006.26
2022-10-22T05:13:28.809Z,1006.26
2022-10-22T05:14:28.902Z,1006.28
2022-10-22T05:15:28.885Z,1006.28
2022-10-22T05:16:28.893Z,1006.29
2022-10-22T05:17:28.787Z,1006.30
2022-10-22T05:18:28.810Z,1006.31
2022-10-22T05:19:28.803Z,1006.32
2022-10-22T05:20:28.757Z,1006.33
2022-10-22T05:21:28.723Z,1006.35
2022-10-22T05:22:28.757Z,1006.36
2022-10-22T05:23:28.719Z,1006.38
2022-10-22T05:24:28.692Z,1006.38
2022-10-22T05:25:28.686Z,1006.38
2022-10-22T05:26:28.702Z,1006.38
2022-10-22T05:27:28.672Z,1006.39
2022-10-22T05:28:28.655Z,1006.40
2022-10-22T05:29:28.637Z,1006.42
2022-10-22T05:30:28.634Z,1006.43
2022-10-22T05:31:28.613Z,1006.44
2022-10-22T05:32:28.618Z,1006.44
2022-10-22T05:33:28.613Z,1006.43
2022-10-22T05:34:28.603Z,1006.43
2022-10-22T05:35:28.582Z,1006.44
2022-10-22T05:36:28.585Z,1006.43
2022-10-22T05:37:28.591Z,1006.43
2022-10-22T05:38:28.547Z,1006.43
2022-10-22T05:39:28.564Z,1006.42
2022-10-22T05:40:31.070Z,1006.41
2022-10-22T05:41:28.539Z,1006.40
2022-10-22T05:42:28.515Z,1006.39
2022-10-22T05:43:28.497Z,1006.39
2022-10-22T05:44:28.487Z,1006.38
2022-10-22T05:45:28.477Z,1006.39
2022-10-22T05:46:28.472Z,1006.40
2022-10-22T05:47:28.451Z,1006.41
2022-10-22T05:48:28.529Z,1006.43
2022-10-22T05:49:28.445Z,1006.44
2022-10-22T05:50:28.424Z,1006.46
2022-10-22T05:51:28.425Z,1006.48
2022-10-22T05:52:28.406Z,1006.51
2022-10-22T05:53:28.400Z,1006.54
2022-10-22T05:54:28.380Z,1006.57
2022-10-22T05:55:28.397Z,1006.58
2022-10-22T05:56:28.375Z,1006.62
2022-10-22T05:57:28.355Z,1006.64
2022-10-22T05:58:28.343Z,1006.67
2022-10-22T05:59:28.369Z,1006.70
2022-10-22T06:00:28.326Z,1006.71
2022-10-22T06:01:28.318Z,1006.72
2022-10-22T06:02:28.397Z,1006.72
2022-10-22T06:03:28.287Z,1006.73
2022-10-22T06:04:28.278Z,1006.74
2022-10-22T06:05:28.316Z,1006.75
2022-10-22T06:06:28.280Z,1006.76
2022-10-22T06:07:28.246Z,1006.75
2022-10-22T06:08:28.235Z,1006.74
2022-10-22T06:09:28.280Z,1006.73
2022-10-22T06:10:28.333Z,1006.71
2022-10-22T06:11:31.116Z,1006.68
2022-10-22T06:12:28.218Z,1006.66
2022-10-22T06:13:28.180Z,1006.64
2022-10-22T06:14:28.178Z,1006.63
2022-10-22T06:15:28.167Z,1006.62
2022-10-22T06:16:28.191Z,1006.60
2022-10-22T06:17:28.142Z,1006.60
2022-10-22T06:18:28.127Z,1006.60
2022-10-22T06:19:28.117Z,1006.61
2022-10-22T06:20:28.207Z,1006.62
2022-10-22T06:21:28.103Z,1006.63
2022-10-22T06:22:28.095Z,1006.65
2022-10-22T06:23:28.076Z,1006.66
2022-10-22T06:24:28.072Z,1006.67
2022-10-22T06:25:28.058Z,1006.68
2022-10-22T06:26:28.090Z,1006.70
2022-10-22T06:27:28.029Z,1006.74
2022-10-22T06:28:28.503Z,1006.78
2022-10-22T06:29:28.026Z,1006.83
2022-10-22T06:30:28.003Z,1006.86
2022-10-22T06:31:28.003Z,1006.88
2022-10-22T06:32:27.992Z,1006.90
2022-10-22T06:33:27.985Z,1006.89
2022-10-22T06:34:27.963Z,1006.89
2022-10-22T06:35:27.986Z,1006.91
2022-10-22T06:36:27.986Z,1006.92
2022-10-22T06:37:27.932Z,1006.95
2022-10-22T06:38:27.986Z,1006.97
2022-10-22T06:39:28.072Z,1006.99
2022-10-22T06:40:27.944Z,1007.02
2022-10-22T06:41:28.889Z,1007.03
2022-10-22T06:42:27.895Z,1007.05
2022-10-22T06:43:27.933Z,1007.04
2022-10-22T06:44:28.014Z,1007.02
2022-10-22T06:45:27.938Z,1007.01
2022-10-22T06:46:27.896Z,1007.01
2022-10-22T06:47:27.900Z,1007.02
2022-10-22T06:48:27.887Z,1007.04
2022-10-22T06:49:27.861Z,1007.05
2022-10-22T06:50:27.825Z,1007.05
2022-10-22T06:51:27.794Z,1007.07
2022-10-22T06:52:27.805Z,1007.08
2022-10-22T06:53:27.765Z,1007.11
2022-10-22T06:54:27.759Z,1007.13
2022-10-22T06:55:27.774Z,1007.16
2022-10-22T06:56:27.744Z,1007.20
2022-10-22T06:57:28.511Z,1007.23
2022-10-22T06:58:27.712Z,1007.24
2022-10-22T06:59:27.695Z,1007.23
2022-10-22T07:00:27.727Z,1007.22
2022-10-22T07:01:27.814Z,1007.20
2022-10-22T07:02:27.673Z,1007.17
2022-10-22T07:03:27.660Z,1007.16
2022-10-22T07:04:27.655Z,1007.16
2022-10-22T07:05:27.645Z,1007.17
2022-10-22T07:06:27.639Z,1007.18
2022-10-22T07:07:27.627Z,1007.17
2022-10-22T07:08:27.621Z,1007.17
2022-10-22T07:09:27.600Z,1007.17
2022-10-22T07:10:29.972Z,1007.16
2022-10-22T07:11:27.584Z,1007.16
2022-10-22T07:12:27.597Z,1007.17
2022-10-22T07:13:27.547Z,1007.18
2022-10-22T07:14:27.555Z,1007.20
2022-10-22T07:15:27.530Z,1007.22
2022-10-22T07:16:31.179Z,1007.23
2022-10-22T07:17:27.565Z,1007.26
2022-10-22T07:18:27.502Z,1007.28
2022-10-22T07:19:27.486Z,1007.30
2022-10-22T07:20:27.492Z,1007.31
2022-10-22T07:21:27.479Z,1007.32
2022-10-22T07:22:27.478Z,1007.31
2022-10-22T07:23:27.454Z,1007.30
2022-10-22T07:24:27.453Z,1007.30
2022-10-22T07:25:27.471Z,1007.29
2022-10-22T07:26:27.455Z,1007.29
2022-10-22T07:27:27.409Z,1007.28
2022-10-22T07:28:27.403Z,1007.28
2022-10-22T07:29:27.396Z,1007.28
2022-10-22T07:30:27.381Z,1007.28
2022-10-22T07:31:27.373Z,1007.29
2022-10-22T07:32:27.364Z,1007.31
2022-10-22T07:33:27.339Z,1007.32
2022-10-22T07:34:27.342Z,1007.33
2022-10-22T07:35:27.330Z,1007.34
2022-10-22T07:36:27.333Z,1007.34
2022-10-22T07:37:27.302Z,1007.35
2022-10-22T07:38:27.307Z,1007.37
2022-10-22T07:39:27.298Z,1007.38
2022-10-22T07:40:27.273Z,1007.40
2022-10-22T07:41:27.274Z,1007.42
2022-10-22T07:42:27.309Z,1007.45
2022-10-22T07:43:27.240Z,1007.48
2022-10-22T07:44:27.229Z,1007.53
2022-10-22T07:45:27.254Z,1007.57
2022-10-22T07:46:27.216Z,1007.59
2022-10-22T07:47:27.199Z,1007.60
2022-10-22T07:48:27.188Z,1007.59
2022-10-22T07:49:27.279Z,1007.61
2022-10-22T07:50:27.227Z,1007.65
2022-10-22T07:51:27.283Z,1007.69
2022-10-22T07:52:27.276Z,1007.73
2022-10-22T07:53:27.267Z,1007.75
2022-10-22T07:54:27.192Z,1007.75
2022-10-22T07:55:27.198Z,1007.74
2022-10-22T07:56:27.144Z,1007.72
2022-10-22T07:57:27.085Z,1007.73
2022-10-22T07:58:27.083Z,1007.73
2022-10-22T07:59:27.092Z,1007.73
2022-10-22T08:00:27.093Z,1007.75
2022-10-22T08:01:27.134Z,1007.76
2022-10-22T08:02:27.040Z,1007.76
2022-10-22T08:03:27.026Z,1007.77
2022-10-22T08:04:27.024Z,1007.77
2022-10-22T08:05:27.023Z,1007.77
2022-10-22T08:06:27.022Z,1007.76
2022-10-22T08:08:29.747Z,1007.78
2022-10-22T08:09:26.962Z,1007.79
2022-10-22T08:10:26.995Z,1007.79
2022-10-22T08:11:32.973Z,1007.81
2022-10-22T08:12:26.930Z,1007.83
2022-10-22T08:13:26.940Z,1007.85
2022-10-22T08:14:28.612Z,1007.86
2022-10-22T08:15:26.976Z,1007.86
2022-10-22T08:16:26.909Z,1007.86
2022-10-22T08:17:26.906Z,1007.87
2022-10-22T08:18:26.940Z,1007.87
2022-10-22T08:19:26.868Z,1007.86
2022-10-22T08:20:26.882Z,1007.85
2022-10-22T08:21:26.891Z,1007.84
2022-10-22T08:22:26.858Z,1007.83
2022-10-22T08:23:28.695Z,1007.83
2022-10-22T08:24:26.892Z,1007.83
2022-10-22T08:25:26.814Z,1007.83
2022-10-22T08:26:26.850Z,1007.82
2022-10-22T08:27:26.783Z,1007.82
2022-10-22T08:28:26.779Z,1007.83
2022-10-22T08:29:26.765Z,1007.84
2022-10-22T08:30:26.782Z,1007.86
2022-10-22T08:31:26.784Z,1007.87
2022-10-22T08:33:26.758Z,1007.87
2022-10-22T08:34:26.699Z,1007.87
2022-10-22T08:35:26.712Z,1007.89
2022-10-22T08:36:26.731Z,1007.91
2022-10-22T08:37:26.681Z,1007.94
2022-10-22T08:38:26.661Z,1007.96
2022-10-22T08:39:26.653Z,1007.98
2022-10-22T08:40:26.800Z,1007.99
2022-10-22T08:41:26.653Z,1008.01
2022-10-22T08:42:26.616Z,1008.04
2022-10-22T08:43:26.611Z,1008.06
2022-10-22T08:44:26.622Z,1008.08
2022-10-22T08:45:26.592Z,1008.11
2022-10-22T08:46:26.596Z,1008.11
2022-10-22T08:47:26.571Z,1008.11
2022-10-22T08:48:26.652Z,1008.11
2022-10-22T08:49:26.593Z,1008.12
2022-10-22T08:50:26.590Z,1008.11
2022-10-22T08:51:26.559Z,1008.11
2022-10-22T08:52:26.515Z,1008.13
2022-10-22T08:53:26.503Z,1008.12
2022-10-22T08:54:26.495Z,1008.15
2022-10-22T08:55:26.487Z,1008.15
2022-10-22T08:56:26.498Z,1008.14
2022-10-22T08:57:26.561Z,1008.12
2022-10-22T08:58:26.525Z,1008.14
2022-10-22T08:59:26.443Z,1008.14
2022-10-22T09:00:26.473Z,1008.14
2022-10-22T09:01:26.437Z,1008.15
2022-10-22T09:02:26.452Z,1008.18
2022-10-22T09:03:26.411Z,1008.18
2022-10-22T09:04:26.428Z,1008.18
2022-10-22T09:05:26.388Z,1008.18
2022-10-22T09:06:26.401Z,1008.20
2022-10-22T09:07:26.360Z,1008.22
2022-10-22T09:08:26.458Z,1008.24
2022-10-22T09:09:26.340Z,1008.25
2022-10-22T09:10:26.348Z,1008.25
2022-10-22T09:11:26.331Z,1008.26
2022-10-22T09:12:26.337Z,1008.26
2022-10-22T09:13:26.297Z,1008.26
2022-10-22T09:14:26.340Z,1008.27
2022-10-22T09:15:26.280Z,1008.26
2022-10-22T09:16:26.280Z,1008.27
2022-10-22T09:17:26.257Z,1008.27
2022-10-22T09:18:26.308Z,1008.27
2022-10-22T09:19:26.236Z,1008.29
2022-10-22T09:20:26.289Z,1008.29
2022-10-22T09:21:26.230Z,1008.30
2022-10-22T09:22:26.310Z,1008.30
2022-10-22T09:23:26.190Z,1008.31
2022-10-22T09:24:27.526Z,1008.32
2022-10-22T09:25:26.173Z,1008.33
2022-10-22T09:26:26.196Z,1008.35
2022-10-22T09:27:26.150Z,1008.35
2022-10-22T09:28:26.139Z,1008.35
2022-10-22T09:29:26.139Z,1008.34
2022-10-22T09:30:26.123Z,1008.32
2022-10-22T09:31:26.118Z,1008.33
2022-10-22T09:32:26.101Z,1008.31
2022-10-22T09:33:26.089Z,1008.30
2022-10-22T09:34:26.168Z,1008.30
2022-10-22T09:35:26.068Z,1008.31
2022-10-22T09:36:26.074Z,1008.31
2022-10-22T09:37:26.044Z,1008.33
2022-10-22T09:38:26.061Z,1008.34
2022-10-22T09:39:26.034Z,1008.36
2022-10-22T09:40:26.010Z,1008.37
2022-10-22T09:41:26.039Z,1008.39
2022-10-22T09:42:26.012Z,1008.40
2022-10-22T09:43:25.985Z,1008.42
2022-10-22T09:44:25.976Z,1008.44
2022-10-22T09:45:25.959Z,1008.45
2022-10-22T09:46:25.964Z,1008.46
2022-10-22T09:47:37.313Z,1008.47
2022-10-22T09:48:25.944Z,1008.46
2022-10-22T09:49:25.921Z,1008.48
2022-10-22T09:50:25.919Z,1008.50
2022-10-22T09:51:25.914Z,1008.52
2022-10-22T09:52:25.898Z,1008.52
2022-10-22T09:53:25.881Z,1008.52
2022-10-22T09:54:25.866Z,1008.51
2022-10-22T09:55:25.859Z,1008.53
2022-10-22T09:56:25.857Z,1008.52
2022-10-22T09:57:25.856Z,1008.52
2022-10-22T09:58:25.833Z,1008.54
2022-10-22T09:59:25.821Z,1008.55
2022-10-22T10:00:25.801Z,1008.56
2022-10-22T10:01:25.803Z,1008.54
2022-10-22T10:02:38.342Z,1008.55
2022-10-22T10:03:25.849Z,1008.54
2022-10-22T10:05:25.759Z,1008.51
2022-10-22T10:06:25.757Z,1008.49
2022-10-22T10:07:25.740Z,1008.49
2022-10-22T10:08:25.720Z,1008.50
2022-10-22T10:09:25.722Z,1008.50
2022-10-22T10:10:25.705Z,1008.51
2022-10-22T10:11:29.066Z,1008.50
2022-10-22T10:12:25.677Z,1008.51
2022-10-22T10:13:25.700Z,1008.53
2022-10-22T10:14:25.654Z,1008.53
2022-10-22T10:15:25.673Z,1008.55
2022-10-22T10:16:25.645Z,1008.57
2022-10-22T10:17:25.649Z,1008.57
2022-10-22T10:18:25.629Z,1008.58
2022-10-22T10:19:25.630Z,1008.56
2022-10-22T10:20:25.616Z,1008.56
2022-10-22T10:21:25.643Z,1008.55
2022-10-22T10:22:25.570Z,1008.54
2022-10-22T10:23:25.609Z,1008.55
2022-10-22T10:24:25.567Z,1008.55
2022-10-22T10:25:25.565Z,1008.57
2022-10-22T10:26:25.577Z,1008.58
2022-10-22T10:27:25.571Z,1008.58
2022-10-22T10:28:25.539Z,1008.57
2022-10-22T10:29:25.627Z,1008.57
2022-10-22T10:30:25.488Z,1008.57
2022-10-22T10:31:25.529Z,1008.59
2022-10-22T10:32:25.480Z,1008.58
2022-10-22T10:33:25.733Z,1008.57
2022-10-22T10:34:25.548Z,1008.57
2022-10-22T10:35:25.490Z,1008.58
2022-10-22T10:36:25.481Z,1008.58
2022-10-22T10:37:25.437Z,1008.57
2022-10-22T10:38:28.775Z,1008.57
2022-10-22T10:39:25.406Z,1008.59
2022-10-22T10:40:25.430Z,1008.58
2022-10-22T10:41:25.471Z,1008.57
2022-10-22T10:42:25.452Z,1008.58
2022-10-22T10:43:25.398Z,1008.58
2022-10-22T10:44:25.345Z,1008.57
2022-10-22T10:45:25.380Z,1008.58
2022-10-22T10:46:25.357Z,1008.57
2022-10-22T10:47:25.573Z,1008.58
2022-10-22T10:48:25.579Z,1008.56
2022-10-22T10:49:25.318Z,1008.57
2022-10-22T10:50:25.335Z,1008.56
2022-10-22T10:51:25.355Z,1008.56
2022-10-22T10:52:25.313Z,1008.55
2022-10-22T10:53:25.260Z,1008.55
2022-10-22T10:54:25.312Z,1008.54
2022-10-22T10:55:25.325Z,1008.54
2022-10-22T10:56:25.240Z,1008.50
2022-10-22T10:57:25.220Z,1008.49
2022-10-22T10:58:25.249Z,1008.50
2022-10-22T10:59:25.202Z,1008.50
2022-10-22T11:00:25.191Z,1008.52
2022-10-22T11:01:25.245Z,1008.55
2022-10-22T11:02:25.165Z,1008.57
2022-10-22T11:03:25.180Z,1008.60
2022-10-22T11:04:25.145Z,1008.61
2022-10-22T11:05:25.131Z,1008.62
2022-10-22T11:06:25.770Z,1008.61
2022-10-22T11:07:34.299Z,1008.61
2022-10-22T11:08:25.106Z,1008.62
2022-10-22T11:09:25.099Z,1008.61
2022-10-22T11:10:25.110Z,1008.63
2022-10-22T11:11:25.084Z,1008.63
2022-10-22T11:12:25.134Z,1008.61
2022-10-22T11:13:25.050Z,1008.60
2022-10-22T11:14:27.819Z,1008.58
2022-10-22T11:15:25.026Z,1008.55
2022-10-22T11:16:25.070Z,1008.54
2022-10-22T11:17:25.002Z,1008.54
2022-10-22T11:18:25.088Z,1008.54
2022-10-22T11:19:46.236Z,1008.52
2022-10-22T11:20:24.999Z,1008.53
2022-10-22T11:21:24.989Z,1008.55
2022-10-22T11:22:26.983Z,1008.56
2022-10-22T11:23:25.419Z,1008.54
2022-10-22T11:24:24.957Z,1008.54
2022-10-22T11:25:24.941Z,1008.54
2022-10-22T11:26:25.036Z,1008.56
2022-10-22T11:27:24.966Z,1008.55
2022-10-22T11:28:24.985Z,1008.55
2022-10-22T11:29:27.198Z,1008.55
2022-10-22T11:30:24.963Z,1008.53
2022-10-22T11:31:24.875Z,1008.53
2022-10-22T11:32:24.905Z,1008.52
2022-10-22T11:33:24.840Z,1008.53
2022-10-22T11:34:39.639Z,1008.53
2022-10-22T11:35:25.945Z,1008.52
2022-10-22T11:36:24.865Z,1008.54
2022-10-22T11:37:24.799Z,1008.52
2022-10-22T11:38:24.801Z,1008.54
2022-10-22T11:39:24.777Z,1008.53
2022-10-22T11:40:24.792Z,1008.56
2022-10-22T11:41:24.760Z,1008.58
2022-10-22T11:42:24.754Z,1008.59
2022-10-22T11:43:24.743Z,1008.58
2022-10-22T11:44:24.727Z,1008.58
2022-10-22T11:45:24.725Z,1008.56
2022-10-22T11:46:25.075Z,1008.57
2022-10-22T11:47:24.700Z,1008.58
2022-10-22T11:48:24.695Z,1008.59
2022-10-22T11:49:24.670Z,1008.59
2022-10-22T11:50:24.699Z,1008.59
2022-10-22T11:51:24.651Z,1008.60
2022-10-22T11:52:24.640Z,1008.60
2022-10-22T11:53:24.661Z,1008.61
2022-10-22T11:54:24.623Z,1008.60
2022-10-22T11:55:24.645Z,1008.60
2022-10-22T11:56:24.602Z,1008.60
2022-10-22T11:57:24.592Z,1008.59
2022-10-22T11:58:24.572Z,1008.60
2022-10-22T11:59:24.567Z,1008.61
2022-10-22T12:00:24.569Z,1008.59
2022-10-22T12:01:24.653Z,1008.60
2022-10-22T12:02:24.535Z,1008.59
2022-10-22T12:03:24.525Z,1008.57
2022-10-22T12:04:24.563Z,1008.55
2022-10-22T12:05:24.515Z,1008.53
2022-10-22T12:06:24.497Z,1008.53
2022-10-22T12:07:24.524Z,1008.53
2022-10-22T12:08:24.472Z,1008.51